Time;durP1;ratioP1;P1;durP2;ratioP2;P2;SDS_P1;SDS_P2;PMS_P1;PMS_P2;Temp;Humidity;BMP_temperature;BMP_pressure;BME280_temperature;BME280_humidity;BME280_pressure;Samples;Min_cycle;Max_cycle;Signal;HPM_P1;HPM_P2
2021/12/04 00:02:04;;;;;;;17.42;8.02;;;;;;;;;;5014660;28;20107;-49
2021/12/04 00:04:33;;;;;;;15.68;7.68;;;;;;;;;;5014676;28;20030;-54
2021/12/04 00:07:00;;;;;;;14.93;6.95;;;;;;;;;;5013941;28;20022;-47
2021/12/04 00:09:26;;;;;;;17.13;6.72;;;;;;;;;;5014442;28;20030;-51
2021/12/04 00:12:03;;;;;;;11.35;5.82;;;;;;;;;;5013000;28;20022;-51
2021/12/04 00:14:32;;;;;;;11.82;5.60;;;;;;;;;;5014266;28;20541;-52
2021/12/04 00:16:59;;;;;;;10.60;5.72;;;;;;;;;;5013881;28;20030;-50
2021/12/04 00:19:26;;;;;;;14.07;6.90;;;;;;;;;;5014345;28;20360;-49
2021/12/04 00:21:53;;;;;;;10.70;6.25;;;;;;;;;;5013833;28;20391;-51
2021/12/04 00:24:19;;;;;;;13.05;6.07;;;;;;;;;;5013989;28;20429;-54
2021/12/04 00:26:46;;;;;;;13.25;6.03;;;;;;;;;;5014074;28;20049;-49
2021/12/04 00:29:12;;;;;;;9.20;5.80;;;;;;;;;;5013888;28;20080;-49
2021/12/04 00:31:44;;;;;;;12.50;6.35;;;;;;;;;;5013169;28;20040;-53
2021/12/04 00:34:11;;;;;;;13.05;6.13;;;;;;;;;;5014146;28;20033;-48
2021/12/04 00:50:03;;;;;;;13.27;6.25;;;;;;;;;;5013787;28;20106;-49
2021/12/04 00:52:30;;;;;;;14.80;7.07;;;;;;;;;;5013828;28;20032;-47
2021/12/04 00:54:56;;;;;;;13.30;7.07;;;;;;;;;;5013693;28;20361;-50
2021/12/04 00:57:22;;;;;;;14.75;7.63;;;;;;;;;;5013656;28;20525;-51
2021/12/04 00:59:48;;;;;;;17.58;7.68;;;;;;;;;;5013739;28;20034;-51
2021/12/04 01:02:14;;;;;;;15.27;8.38;;;;;;;;;;5013180;28;20026;-49
2021/12/04 01:04:41;;;;;;;15.57;7.78;;;;;;;;;;5014016;28;20036;-51
2021/12/04 01:07:08;;;;;;;14.55;7.80;;;;;;;;;;5013665;28;20025;-50
2021/12/04 01:09:34;;;;;;;15.43;7.22;;;;;;;;;;5013552;28;20082;-51
2021/12/04 01:12:01;;;;;;;15.30;8.38;;;;;;;;;;5013439;28;20026;-50
2021/12/04 01:14:28;;;;;;;13.80;7.18;;;;;;;;;;5013445;28;20139;-53
2021/12/04 01:16:54;;;;;;;15.48;7.53;;;;;;;;;;5013546;28;20022;-55
2021/12/04 01:19:21;;;;;;;12.63;7.40;;;;;;;;;;5013701;28;20022;-55
2021/12/04 01:21:48;;;;;;;17.58;7.70;;;;;;;;;;5013332;28;20022;-51
2021/12/04 01:24:14;;;;;;;16.20;7.65;;;;;;;;;;5013021;28;20132;-53
2021/12/04 01:26:40;;;;;;;15.55;7.75;;;;;;;;;;5012977;28;20080;-49
2021/12/04 01:29:06;;;;;;;17.75;7.88;;;;;;;;;;5013033;28;20037;-48
2021/12/04 01:31:33;;;;;;;17.63;7.95;;;;;;;;;;5011153;28;20044;-54
2021/12/04 01:33:59;;;;;;;15.88;7.60;;;;;;;;;;5011345;28;20022;-53
2021/12/04 01:36:25;;;;;;;18.15;7.72;;;;;;;;;;5013850;28;20038;-50
2021/12/04 01:38:52;;;;;;;13.05;6.75;;;;;;;;;;5013401;28;20062;-46
2021/12/04 01:41:18;;;;;;;18.08;7.80;;;;;;;;;;5012688;28;20026;-53
2021/12/04 01:43:44;;;;;;;19.10;7.93;;;;;;;;;;5015365;28;20069;-52
2021/12/04 01:46:11;;;;;;;18.40;7.97;;;;;;;;;;5017317;28;20064;-51
2021/12/04 01:48:37;;;;;;;14.32;7.18;;;;;;;;;;5016925;28;20026;-49
2021/12/04 01:51:04;;;;;;;16.88;7.85;;;;;;;;;;5016793;28;20020;-50
2021/12/04 01:53:30;;;;;;;17.45;8.05;;;;;;;;;;5016542;28;20064;-47
2021/12/04 01:55:57;;;;;;;15.48;7.47;;;;;;;;;;5016767;28;20022;-52
2021/12/04 01:58:24;;;;;;;14.32;7.32;;;;;;;;;;5016547;28;20018;-46
2021/12/04 02:00:50;;;;;;;14.57;6.38;;;;;;;;;;5016982;28;20046;-49
2021/12/04 02:03:18;;;;;;;18.20;7.75;;;;;;;;;;5016724;28;20041;-51
2021/12/04 02:05:44;;;;;;;21.02;8.77;;;;;;;;;;5016813;28;20053;-47
2021/12/04 02:08:16;;;;;;;16.17;7.32;;;;;;;;;;5016833;28;20033;-51
2021/12/04 02:10:42;;;;;;;;;;;;;;;;;;5017157;28;20026;-48
2021/12/04 02:13:08;;;;;;;14.40;6.57;;;;;;;;;;5016164;28;20039;-49
2021/12/04 02:15:34;;;;;;;10.27;6.10;;;;;;;;;;5016658;28;20083;-51
2021/12/04 02:18:04;;;;;;;14.45;6.90;;;;;;;;;;5016091;28;20017;-49
2021/12/04 02:20:33;;;;;;;15.02;7.30;;;;;;;;;;5016046;28;20037;-50
2021/12/04 02:22:59;;;;;;;13.13;6.65;;;;;;;;;;5020195;28;20446;-52
2021/12/04 02:25:25;;;;;;;9.85;6.07;;;;;;;;;;5032980;28;20018;-50
2021/12/04 02:27:52;;;;;;;12.50;5.50;;;;;;;;;;5033789;28;20026;-48
2021/12/04 02:30:19;;;;;;;10.35;5.57;;;;;;;;;;5035985;28;20393;-48
2021/12/04 02:32:45;;;;;;;11.05;5.97;;;;;;;;;;5029876;28;20066;-49
2021/12/04 02:35:12;;;;;;;10.57;5.40;;;;;;;;;;5016185;28;20049;-48
2021/12/04 02:37:39;;;;;;;11.27;5.68;;;;;;;;;;5016089;28;20033;-50
2021/12/04 02:40:07;;;;;;;15.95;6.43;;;;;;;;;;5016372;28;20022;-50
2021/12/04 02:42:33;;;;;;;14.32;6.93;;;;;;;;;;5016174;28;20557;-50
2021/12/04 02:45:00;;;;;;;13.50;6.53;;;;;;;;;;5016183;28;20036;-52
2021/12/04 02:47:27;;;;;;;11.07;5.95;;;;;;;;;;5016454;28;20022;-48
2021/12/04 02:49:53;;;;;;;13.20;6.40;;;;;;;;;;5023580;28;20025;-49
2021/12/04 02:52:20;;;;;;;10.20;6.43;;;;;;;;;;5015401;28;20022;-48
2021/12/04 02:54:46;;;;;;;13.70;6.70;;;;;;;;;;5014481;28;20045;-52
2021/12/04 02:57:14;;;;;;;13.32;6.88;;;;;;;;;;5015515;28;20045;-48
2021/12/04 02:59:41;;;;;;;12.20;5.88;;;;;;;;;;5014334;28;20367;-51
2021/12/04 03:02:15;;;;;;;14.10;6.70;;;;;;;;;;5015444;28;20030;-47
2021/12/04 03:04:41;;;;;;;15.85;6.80;;;;;;;;;;5015453;28;20490;-49
2021/12/04 03:07:07;;;;;;;20.08;8.20;;;;;;;;;;5015550;28;20186;-49
2021/12/04 03:09:35;;;;;;;11.65;6.32;;;;;;;;;;5015504;28;20026;-50
2021/12/04 03:12:02;;;;;;;12.10;5.82;;;;;;;;;;5014749;28;20021;-46
2021/12/04 03:14:28;;;;;;;11.88;6.28;;;;;;;;;;5015048;28;20109;-48
2021/12/04 03:16:54;;;;;;;13.80;6.30;;;;;;;;;;5015136;28;20514;-48
2021/12/04 03:19:20;;;;;;;13.52;5.95;;;;;;;;;;5015053;28;20104;-50
2021/12/04 03:21:47;;;;;;;16.27;6.65;;;;;;;;;;5015111;28;20018;-51
2021/12/04 03:24:15;;;;;;;11.85;5.90;;;;;;;;;;5014699;28;20181;-53
2021/12/04 03:26:41;;;;;;;11.45;5.75;;;;;;;;;;5013306;28;20022;-52
2021/12/04 03:29:12;;;;;;;13.20;5.13;;;;;;;;;;5014521;28;20475;-50
2021/12/04 03:42:35;;;;;;;10.60;5.20;;;;;;;;;;5015063;28;20044;-51
2021/12/04 03:45:02;;;;;;;9.20;4.25;;;;;;;;;;5014853;28;20032;-52
2021/12/04 03:47:29;;;;;;;10.35;4.63;;;;;;;;;;5014431;28;20073;-48
2021/12/04 03:49:56;;;;;;;7.78;3.88;;;;;;;;;;5014828;28;20075;-52
2021/12/04 03:52:22;;;;;;;15.90;6.10;;;;;;;;;;5014296;28;20100;-51
2021/12/04 03:54:48;;;;;;;10.55;5.20;;;;;;;;;;5014348;28;20479;-49
2021/12/04 03:57:14;;;;;;;7.50;4.65;;;;;;;;;;5014457;28;20050;-51
2021/12/04 03:59:42;;;;;;;6.63;3.55;;;;;;;;;;5014719;28;20030;-53
2021/12/04 04:02:09;;;;;;;6.47;3.38;;;;;;;;;;5014347;28;20022;-47
2021/12/04 04:04:35;;;;;;;8.75;3.90;;;;;;;;;;5014287;28;20100;-51
2021/12/04 04:07:01;;;;;;;7.88;4.38;;;;;;;;;;5014437;28;20368;-50
2021/12/04 04:09:28;;;;;;;15.27;6.28;;;;;;;;;;5014214;28;20106;-52
2021/12/04 04:11:54;;;;;;;18.40;8.73;;;;;;;;;;5014608;28;20100;-53
2021/12/04 04:14:22;;;;;;;13.40;5.68;;;;;;;;;;5014147;28;20403;-49
2021/12/04 04:16:49;;;;;;;18.60;8.60;;;;;;;;;;5014278;28;20052;-52
2021/12/04 04:19:15;;;;;;;10.75;4.50;;;;;;;;;;5013996;28;20101;-47
2021/12/04 04:21:44;;;;;;;10.50;6.25;;;;;;;;;;5014091;28;20101;-51
2021/12/04 04:24:11;;;;;;;9.57;5.20;;;;;;;;;;5013903;28;20050;-53
2021/12/04 04:26:38;;;;;;;9.77;4.90;;;;;;;;;;5014350;28;20022;-51
2021/12/04 04:29:05;;;;;;;7.18;4.38;;;;;;;;;;5014049;28;20026;-50
2021/12/04 04:31:31;;;;;;;10.00;4.40;;;;;;;;;;5026304;28;20029;-53
2021/12/04 04:34:02;;;;;;;10.27;4.88;;;;;;;;;;5033811;28;20123;-49
2021/12/04 05:12:49;;;;;;;22.83;11.13;;;;;;;;;;5033047;28;20064;-53
2021/12/04 05:14:45;;;;;;;37.17;15.32;;;;;;;;;;5030265;28;20041;-48
2021/12/04 05:17:26;;;;;;;28.08;13.25;;;;;;;;;;5033624;28;20025;-51
2021/12/04 05:19:53;;;;;;;50.03;23.65;;;;;;;;;;5037191;28;20031;-49
2021/12/04 05:22:32;;;;;;;40.78;18.27;;;;;;;;;;5037034;28;20029;-51
2021/12/04 05:24:58;;;;;;;22.33;11.23;;;;;;;;;;5036130;28;20065;-51
2021/12/04 05:27:24;;;;;;;29.25;12.38;;;;;;;;;;5036152;28;20022;-52
2021/12/04 05:29:50;;;;;;;20.45;11.30;;;;;;;;;;5034988;28;20026;-51
2021/12/04 05:32:16;;;;;;;17.30;10.65;;;;;;;;;;5036481;28;20025;-53
2021/12/04 05:34:43;;;;;;;26.35;13.48;;;;;;;;;;5037232;28;20033;-50
2021/12/04 05:37:09;;;;;;;25.33;10.13;;;;;;;;;;5035528;28;20024;-50
2021/12/04 05:39:36;;;;;;;27.88;12.18;;;;;;;;;;5034587;28;20025;-48
2021/12/04 05:42:02;;;;;;;39.72;18.30;;;;;;;;;;5036905;28;20025;-48
2021/12/04 05:44:30;;;;;;;24.35;12.85;;;;;;;;;;5036461;28;20029;-47
2021/12/04 05:47:01;;;;;;;32.10;14.40;;;;;;;;;;5036399;28;20053;-50
2021/12/04 05:56:56;;;;;;;24.15;11.38;;;;;;;;;;5036688;28;20037;-50
2021/12/04 05:59:29;;;;;;;24.92;11.75;;;;;;;;;;5036356;28;20471;-52
2021/12/04 06:01:55;;;;;;;27.13;12.18;;;;;;;;;;5036120;28;20033;-49
2021/12/04 06:04:22;;;;;;;26.58;12.82;;;;;;;;;;5035584;28;20026;-50
2021/12/04 06:06:48;;;;;;;26.20;13.20;;;;;;;;;;5036362;28;20364;-46
2021/12/04 06:09:14;;;;;;;25.58;12.38;;;;;;;;;;5036585;28;20017;-46
2021/12/04 06:11:40;;;;;;;26.83;12.65;;;;;;;;;;5033540;28;20018;-47
2021/12/04 06:14:06;;;;;;;30.55;12.90;;;;;;;;;;5026058;28;20030;-47
2021/12/04 06:16:33;;;;;;;28.27;13.15;;;;;;;;;;5016137;28;20109;-47
2021/12/04 06:19:09;;;;;;;30.48;13.75;;;;;;;;;;5016197;28;20086;-49
2021/12/04 06:24:20;;;;;;;25.92;10.70;;;;;;;;;;5014374;28;20129;-49
2021/12/04 06:26:46;;;;;;;21.25;10.38;;;;;;;;;;5023194;28;20099;-46
2021/12/04 06:29:12;;;;;;;27.30;13.35;;;;;;;;;;5034754;28;20026;-47
2021/12/04 06:31:38;;;;;;;37.17;16.92;;;;;;;;;;5034303;28;20033;-49
2021/12/04 06:34:04;;;;;;;29.73;14.85;;;;;;;;;;5035286;28;20033;-51
2021/12/04 06:36:30;;;;;;;40.63;18.05;;;;;;;;;;5035996;28;20112;-48
2021/12/04 06:38:57;;;;;;;40.00;17.55;;;;;;;;;;5035556;28;20025;-49
2021/12/04 06:41:23;;;;;;;39.05;19.17;;;;;;;;;;5035540;28;20017;-51
2021/12/04 06:43:50;;;;;;;32.05;14.95;;;;;;;;;;5035381;28;20462;-49
2021/12/04 06:46:18;;;;;;;34.42;16.38;;;;;;;;;;5035447;28;20025;-49
2021/12/04 06:51:38;;;;;;;38.30;18.35;;;;;;;;;;5035612;28;20030;-50
2021/12/04 06:56:42;;;;;;;35.38;16.58;;;;;;;;;;5035198;28;20038;-51
2021/12/04 06:59:12;;;;;;;32.17;14.45;;;;;;;;;;5035566;28;20132;-52
2021/12/04 07:01:39;;;;;;;38.13;17.77;;;;;;;;;;5035304;28;20026;-49
2021/12/04 07:04:06;;;;;;;38.97;18.38;;;;;;;;;;5035425;28;20113;-52
2021/12/04 07:06:33;;;;;;;35.67;17.27;;;;;;;;;;5035352;28;20029;-53
2021/12/04 07:08:59;;;;;;;33.33;15.73;;;;;;;;;;5035306;28;20471;-50
2021/12/04 07:11:26;;;;;;;30.02;14.23;;;;;;;;;;5035227;28;20061;-50
2021/12/04 07:13:53;;;;;;;29.95;14.52;;;;;;;;;;5035295;28;20079;-51
2021/12/04 07:16:20;;;;;;;52.40;20.70;;;;;;;;;;5035078;28;20025;-52
2021/12/04 07:18:47;;;;;;;25.52;11.93;;;;;;;;;;5035014;28;20053;-51
2021/12/04 07:21:13;;;;;;;30.48;15.70;;;;;;;;;;5034794;28;20107;-53
2021/12/04 07:23:40;;;;;;;31.60;15.00;;;;;;;;;;5034502;28;20045;-48
2021/12/04 07:26:07;;;;;;;43.10;22.05;;;;;;;;;;5034787;28;20100;-55
2021/12/04 07:28:34;;;;;;;28.85;13.88;;;;;;;;;;5035002;28;20053;-50
2021/12/04 07:31:00;;;;;;;58.65;27.88;;;;;;;;;;5034501;28;20072;-50
2021/12/04 07:33:26;;;;;;;45.78;21.20;;;;;;;;;;5034691;28;20463;-54
2021/12/04 07:35:53;;;;;;;39.15;17.83;;;;;;;;;;5034339;28;20084;-57
2021/12/04 07:38:19;;;;;;;33.33;15.18;;;;;;;;;;5033957;28;20026;-54
2021/12/04 07:40:49;;;;;;;21.35;10.05;;;;;;;;;;5034304;28;20104;-52
2021/12/04 07:43:15;;;;;;;32.03;15.57;;;;;;;;;;5033293;28;20029;-55
2021/12/04 07:45:41;;;;;;;25.23;11.90;;;;;;;;;;5033722;28;20104;-53
2021/12/04 07:48:07;;;;;;;24.33;12.60;;;;;;;;;;5034070;28;20021;-52
2021/12/04 07:50:34;;;;;;;26.25;13.98;;;;;;;;;;5034821;28;20024;-53
2021/12/04 07:53:00;;;;;;;25.13;12.98;;;;;;;;;;5033900;28;20040;-52
2021/12/04 07:55:26;;;;;;;25.67;12.98;;;;;;;;;;5034145;28;20470;-51
2021/12/04 07:57:53;;;;;;;25.58;13.68;;;;;;;;;;5030415;28;20378;-52
2021/12/04 08:00:20;;;;;;;27.00;12.80;;;;;;;;;;5025064;28;20063;-54
2021/12/04 08:02:48;;;;;;;72.75;33.92;;;;;;;;;;5025890;28;20337;-63
2021/12/04 08:05:14;;;;;;;21.38;11.70;;;;;;;;;;5033003;28;20029;-54
2021/12/04 08:07:40;;;;;;;42.17;18.27;;;;;;;;;;5033841;28;20040;-49
2021/12/04 08:10:09;;;;;;;24.52;11.93;;;;;;;;;;5033274;28;20029;-52
2021/12/04 08:12:36;;;;;;;23.85;11.68;;;;;;;;;;5033796;28;20036;-51
2021/12/04 08:15:04;;;;;;;28.10;12.35;;;;;;;;;;5033598;28;20068;-51
2021/12/04 08:17:30;;;;;;;22.08;11.75;;;;;;;;;;5033713;28;20020;-51
2021/12/04 08:19:56;;;;;;;31.08;12.88;;;;;;;;;;5034025;28;20017;-47
2021/12/04 08:22:23;;;;;;;42.30;19.48;;;;;;;;;;5034552;28;20071;-49
2021/12/04 08:24:49;;;;;;;26.05;13.23;;;;;;;;;;5033248;28;20071;-51
2021/12/04 08:27:16;;;;;;;28.67;13.48;;;;;;;;;;5033629;28;20428;-52
2021/12/04 08:29:43;;;;;;;25.55;13.35;;;;;;;;;;5033881;28;20021;-51
2021/12/04 08:32:09;;;;;;;32.67;14.63;;;;;;;;;;5033722;28;20026;-53
2021/12/04 08:34:36;;;;;;;25.13;12.55;;;;;;;;;;5032582;28;20028;-50
2021/12/04 08:37:03;;;;;;;18.23;8.93;;;;;;;;;;5033742;28;20029;-51
2021/12/04 08:39:30;;;;;;;17.38;9.63;;;;;;;;;;5033586;28;20402;-52
2021/12/04 08:41:57;;;;;;;21.75;8.80;;;;;;;;;;5033424;28;20482;-49
2021/12/04 08:44:23;;;;;;;18.35;8.82;;;;;;;;;;5033464;28;20057;-53
2021/12/04 08:46:50;;;;;;;25.98;11.10;;;;;;;;;;5034034;28;20025;-49
2021/12/04 08:49:16;;;;;;;20.70;10.77;;;;;;;;;;5033463;28;20021;-57
2021/12/04 08:51:43;;;;;;;21.50;10.90;;;;;;;;;;5033207;28;20042;-50
2021/12/04 08:54:10;;;;;;;27.38;11.65;;;;;;;;;;5033025;28;20075;-50
2021/12/04 08:56:36;;;;;;;20.55;9.68;;;;;;;;;;5033529;28;20026;-52
2021/12/04 08:59:03;;;;;;;23.55;11.23;;;;;;;;;;5033413;28;20105;-53
2021/12/04 09:01:32;;;;;;;20.73;9.85;;;;;;;;;;5032164;28;20029;-57
2021/12/04 09:04:09;;;;;;;21.45;9.77;;;;;;;;;;5030205;28;20390;-54
2021/12/04 09:06:42;;;;;;;18.00;9.75;;;;;;;;;;5031124;28;20075;-50
2021/12/04 09:09:10;;;;;;;19.35;9.10;;;;;;;;;;5031990;28;20023;-54
2021/12/04 09:11:41;;;;;;;25.08;11.93;;;;;;;;;;5032093;28;20021;-51
2021/12/04 09:14:14;;;;;;;21.38;11.18;;;;;;;;;;5031947;28;20017;-53
2021/12/04 09:16:40;;;;;;;17.17;8.93;;;;;;;;;;5031657;28;20530;-51
2021/12/04 09:19:09;;;;;;;16.08;7.93;;;;;;;;;;5031387;28;20102;-50
2021/12/04 09:21:39;;;;;;;41.88;17.27;;;;;;;;;;5031860;28;20095;-50
2021/12/04 09:24:11;;;;;;;28.70;13.70;;;;;;;;;;5031300;28;20038;-51
2021/12/04 09:32:33;;;;;;;24.67;11.85;;;;;;;;;;5029787;28;20529;-52
2021/12/04 10:02:23;;;;;;;24.80;13.02;;;;;;;;;;5028968;28;20033;-54
2021/12/04 10:34:48;;;;;;;21.02;11.27;;;;;;;;;;5030276;28;20116;-57
2021/12/04 10:37:24;;;;;;;23.70;14.45;;;;;;;;;;5027887;28;20025;-53
2021/12/04 10:39:52;;;;;;;18.50;11.55;;;;;;;;;;5033069;28;20017;-50
2021/12/04 10:42:22;;;;;;;23.73;11.38;;;;;;;;;;5032919;28;20045;-51
2021/12/04 10:44:52;;;;;;;28.75;15.45;;;;;;;;;;5033356;28;20252;-51
2021/12/04 10:47:26;;;;;;;21.17;12.52;;;;;;;;;;5034602;28;20109;-52
2021/12/04 10:50:09;;;;;;;21.55;11.88;;;;;;;;;;5035334;28;20100;-49
2021/12/04 11:03:06;;;;;;;24.00;12.73;;;;;;;;;;5034876;28;20037;-49
2021/12/04 11:22:45;;;;;;;21.92;13.73;;;;;;;;;;5034708;28;20025;-57
2021/12/04 11:28:47;;;;;;;21.80;13.07;;;;;;;;;;4998338;28;20034;-51
2021/12/04 11:44:27;;;;;;;22.15;12.75;;;;;;;;;;5034348;28;20475;-49
2021/12/04 11:46:56;;;;;;;24.20;13.43;;;;;;;;;;5034442;28;20021;-49
2021/12/04 11:49:25;;;;;;;20.42;12.63;;;;;;;;;;5033929;28;20022;-46
2021/12/04 11:51:57;;;;;;;24.92;13.02;;;;;;;;;;5034046;28;20018;-51
2021/12/04 11:54:34;;;;;;;21.13;12.77;;;;;;;;;;5033722;28;20029;-50
2021/12/04 11:57:12;;;;;;;19.75;11.52;;;;;;;;;;5034021;28;20471;-48
2021/12/04 11:59:40;;;;;;;18.70;12.35;;;;;;;;;;5033788;28;20371;-50
2021/12/04 12:02:08;;;;;;;23.27;12.48;;;;;;;;;;5033916;28;20033;-54
2021/12/04 12:04:42;;;;;;;23.98;15.18;;;;;;;;;;5033759;28;20441;-52
2021/12/04 12:07:16;;;;;;;31.80;18.08;;;;;;;;;;5034030;28;20025;-53
2021/12/04 12:09:43;;;;;;;21.58;13.70;;;;;;;;;;5033936;28;20105;-52
2021/12/04 12:12:13;;;;;;;22.58;12.93;;;;;;;;;;5034164;28;20108;-48
2021/12/04 12:14:48;;;;;;;21.30;12.23;;;;;;;;;;5033742;28;20031;-50
2021/12/04 12:17:16;;;;;;;21.13;12.85;;;;;;;;;;5034109;28;20060;-60
2021/12/04 12:19:49;;;;;;;21.92;13.65;;;;;;;;;;5032370;28;20034;-52
2021/12/04 12:22:38;;;;;;;20.88;12.60;;;;;;;;;;5013708;28;20121;-52
2021/12/04 12:25:16;;;;;;;28.20;14.98;;;;;;;;;;5021958;28;20107;-52
2021/12/04 12:38:34;;;;;;;27.42;15.70;;;;;;;;;;5033911;28;20116;-51
2021/12/04 12:41:03;;;;;;;20.05;12.75;;;;;;;;;;5033352;28;20112;-51
2021/12/04 12:43:47;;;;;;;26.55;13.45;;;;;;;;;;5033232;28;20438;-51
2021/12/04 12:46:14;;;;;;;20.63;11.95;;;;;;;;;;5032065;28;20424;-51
2021/12/04 12:48:58;;;;;;;22.67;13.80;;;;;;;;;;5033328;28;20030;-52
2021/12/04 12:51:32;;;;;;;20.98;13.98;;;;;;;;;;5033537;28;20112;-52
2021/12/04 12:54:00;;;;;;;24.10;13.45;;;;;;;;;;5032634;28;20033;-48
2021/12/04 12:56:28;;;;;;;18.05;11.40;;;;;;;;;;5027034;28;20382;-49
2021/12/04 12:58:58;;;;;;;17.10;10.43;;;;;;;;;;5033649;28;20466;-49
2021/12/04 13:13:06;;;;;;;19.23;9.52;;;;;;;;;;5011405;28;20116;-56
2021/12/04 13:15:38;;;;;;;22.85;9.73;;;;;;;;;;5013110;28;20022;-50
2021/12/04 13:18:12;;;;;;;22.45;11.45;;;;;;;;;;5013104;28;20050;-52
2021/12/04 13:20:38;;;;;;;20.38;10.57;;;;;;;;;;5013718;28;20092;-51
2021/12/04 13:23:12;;;;;;;16.98;10.15;;;;;;;;;;5013437;28;20025;-54
2021/12/04 13:25:38;;;;;;;19.60;9.70;;;;;;;;;;5012357;28;20378;-49
2021/12/04 13:30:31;;;;;;;22.92;10.00;;;;;;;;;;5011994;28;20029;-50
2021/12/04 13:32:57;;;;;;;28.17;11.18;;;;;;;;;;5013289;28;20541;-49
2021/12/04 13:35:24;;;;;;;20.25;9.88;;;;;;;;;;5013411;28;20041;-52
2021/12/04 13:37:55;;;;;;;24.02;11.27;;;;;;;;;;5013605;28;20026;-52
2021/12/04 13:40:21;;;;;;;27.70;12.50;;;;;;;;;;5016896;28;20018;-51
2021/12/04 13:42:48;;;;;;;25.38;12.02;;;;;;;;;;5017114;28;20049;-51
2021/12/04 13:45:17;;;;;;;43.35;17.17;;;;;;;;;;5017078;28;20022;-52
2021/12/04 13:47:44;;;;;;;25.52;11.18;;;;;;;;;;5017852;28;20026;-52
2021/12/04 13:50:43;;;;;;;21.30;11.63;;;;;;;;;;5016551;28;20057;-51
2021/12/04 13:53:19;;;;;;;22.75;10.95;;;;;;;;;;5015699;28;20046;-51
2021/12/04 13:55:53;;;;;;;20.30;9.52;;;;;;;;;;5015824;28;20499;-53
2021/12/04 13:58:20;;;;;;;26.17;13.10;;;;;;;;;;5016967;28;20033;-50
2021/12/04 14:00:46;;;;;;;37.15;15.45;;;;;;;;;;5016935;28;20026;-52
2021/12/04 14:03:12;;;;;;;20.90;10.40;;;;;;;;;;5016747;28;20026;-52
2021/12/04 14:05:39;;;;;;;23.05;11.52;;;;;;;;;;5016939;28;20041;-52
2021/12/04 14:08:06;;;;;;;19.92;10.55;;;;;;;;;;5019030;28;20112;-53
2021/12/04 14:10:38;;;;;;;25.10;11.73;;;;;;;;;;5024940;28;20018;-50
2021/12/04 14:13:05;;;;;;;21.58;10.25;;;;;;;;;;5036364;28;20022;-48
2021/12/04 14:15:31;;;;;;;20.42;9.27;;;;;;;;;;5034512;28;20025;-46
2021/12/04 14:17:59;;;;;;;16.67;10.05;;;;;;;;;;5034844;28;20022;-53
2021/12/04 14:20:26;;;;;;;21.42;11.02;;;;;;;;;;5032901;28;20084;-50
2021/12/04 14:22:53;;;;;;;24.92;13.50;;;;;;;;;;5034404;28;20409;-52
2021/12/04 14:25:20;;;;;;;25.73;12.10;;;;;;;;;;5035312;28;20124;-52
2021/12/04 14:27:47;;;;;;;22.83;12.18;;;;;;;;;;5034847;28;20028;-50
2021/12/04 14:30:18;;;;;;;25.25;12.27;;;;;;;;;;5035802;28;20025;-51
2021/12/04 14:32:52;;;;;;;23.05;11.65;;;;;;;;;;5035938;28;20022;-51
2021/12/04 14:35:20;;;;;;;22.27;11.27;;;;;;;;;;5036147;28;20471;-51
2021/12/04 14:37:48;;;;;;;17.73;10.30;;;;;;;;;;5035932;28;20497;-49
2021/12/04 14:40:17;;;;;;;26.25;12.32;;;;;;;;;;5035708;28;20013;-51
2021/12/04 14:42:44;;;;;;;27.98;13.27;;;;;;;;;;5035722;28;20022;-52
2021/12/04 14:45:11;;;;;;;26.52;12.65;;;;;;;;;;5035774;28;20025;-53
2021/12/04 14:47:46;;;;;;;31.95;14.93;;;;;;;;;;5035757;28;20451;-49
2021/12/04 14:50:13;;;;;;;29.30;14.05;;;;;;;;;;5034275;28;20434;-52
2021/12/04 14:52:40;;;;;;;31.15;13.43;;;;;;;;;;5035252;28;20021;-52
2021/12/04 14:55:18;;;;;;;38.10;15.13;;;;;;;;;;5035171;28;20459;-52
2021/12/04 14:57:44;;;;;;;31.92;16.70;;;;;;;;;;5035704;28;20095;-53
2021/12/04 15:00:11;;;;;;;33.08;14.02;;;;;;;;;;5034127;28;20024;-53
2021/12/04 15:02:37;;;;;;;28.15;14.68;;;;;;;;;;5035548;28;20030;-51
2021/12/04 15:05:04;;;;;;;30.60;14.57;;;;;;;;;;5035507;28;20112;-51
2021/12/04 15:07:33;;;;;;;35.00;15.93;;;;;;;;;;5034812;28;20026;-52
2021/12/04 15:09:59;;;;;;;34.83;15.32;;;;;;;;;;5035042;28;20367;-52
2021/12/04 15:12:26;;;;;;;36.33;16.30;;;;;;;;;;5035226;28;20414;-48
2021/12/04 15:15:20;;;;;;;40.17;17.33;;;;;;;;;;5034463;28;20034;-51
2021/12/04 15:17:56;;;;;;;44.17;18.30;;;;;;;;;;5033117;28;20033;-51
2021/12/04 15:20:30;;;;;;;47.05;18.25;;;;;;;;;;5034955;28;20419;-49
2021/12/04 15:22:57;;;;;;;42.85;16.17;;;;;;;;;;5034619;28;20099;-54
2021/12/04 15:25:26;;;;;;;38.97;17.42;;;;;;;;;;5034306;28;20049;-51
2021/12/04 15:27:52;;;;;;;43.45;17.60;;;;;;;;;;5035074;28;20061;-51
2021/12/04 15:30:19;;;;;;;41.30;15.90;;;;;;;;;;5033849;28;20060;-52
2021/12/04 15:32:46;;;;;;;40.85;15.52;;;;;;;;;;5034575;28;20494;-48
2021/12/04 15:35:35;;;;;;;36.83;15.07;;;;;;;;;;5034783;28;20029;-48
2021/12/04 15:38:16;;;;;;;31.80;13.20;;;;;;;;;;5034457;28;20379;-48
2021/12/04 15:54:09;;;;;;;36.30;14.60;;;;;;;;;;5032831;28;20029;-49
2021/12/04 15:56:44;;;;;;;46.13;17.97;;;;;;;;;;5034117;28;20479;-52
2021/12/04 15:59:30;;;;;;;40.58;17.98;;;;;;;;;;5034244;28;20036;-52
2021/12/04 16:01:59;;;;;;;40.05;15.55;;;;;;;;;;5034238;28;20025;-51
2021/12/04 16:04:30;;;;;;;40.95;16.85;;;;;;;;;;5034041;28;20036;-52
2021/12/04 16:06:57;;;;;;;40.85;15.95;;;;;;;;;;5034440;28;20021;-53
2021/12/04 16:09:37;;;;;;;31.70;15.27;;;;;;;;;;5033286;28;20029;-52
2021/12/04 16:12:03;;;;;;;29.38;14.73;;;;;;;;;;5033903;28;20471;-54
2021/12/04 16:14:31;;;;;;;40.10;15.48;;;;;;;;;;5034276;28;20029;-53
2021/12/04 16:16:57;;;;;;;34.45;14.75;;;;;;;;;;5033730;28;20026;-51
2021/12/04 16:19:24;;;;;;;34.35;15.25;;;;;;;;;;5034123;28;20115;-53
2021/12/04 16:21:50;;;;;;;227.30;60.33;;;;;;;;;;5033831;28;20395;-53
2021/12/04 16:24:17;;;;;;;31.92;13.43;;;;;;;;;;5033751;28;20054;-50
2021/12/04 16:26:43;;;;;;;33.13;15.50;;;;;;;;;;5030115;28;20112;-51
2021/12/04 16:29:12;;;;;;;42.15;15.40;;;;;;;;;;5022679;28;20436;-49
2021/12/04 16:40:29;;;;;;;31.23;13.57;;;;;;;;;;5001665;28;20066;-51
2021/12/04 16:43:02;;;;;;;43.08;17.50;;;;;;;;;;5014056;28;20029;-49
2021/12/04 16:45:29;;;;;;;27.92;13.20;;;;;;;;;;5012878;28;20034;-50
2021/12/04 16:47:59;;;;;;;29.27;12.35;;;;;;;;;;5013557;28;20026;-53
2021/12/04 16:50:29;;;;;;;40.55;15.32;;;;;;;;;;5013115;28;20372;-54
2021/12/04 16:56:01;;;;;;;41.92;15.50;;;;;;;;;;5013978;28;20072;-52
2021/12/04 16:58:28;;;;;;;62.72;27.20;;;;;;;;;;5014093;28;20434;-52
2021/12/04 17:00:55;;;;;;;27.83;12.93;;;;;;;;;;5013218;28;20080;-52
2021/12/04 17:03:21;;;;;;;33.22;15.13;;;;;;;;;;5013555;28;20030;-52
2021/12/04 17:05:48;;;;;;;43.55;21.13;;;;;;;;;;5013486;28;20018;-49
2021/12/04 17:08:14;;;;;;;37.17;18.13;;;;;;;;;;5013718;28;20026;-49
2021/12/04 17:10:41;;;;;;;38.33;18.65;;;;;;;;;;5013835;28;20029;-52
2021/12/04 17:13:07;;;;;;;34.90;16.48;;;;;;;;;;5013286;28;20455;-53
2021/12/04 17:15:34;;;;;;;34.45;16.20;;;;;;;;;;5017833;28;20052;-48
2021/12/04 17:18:03;;;;;;;31.63;15.32;;;;;;;;;;5017740;28;20050;-50
2021/12/04 17:20:29;;;;;;;20.67;9.80;;;;;;;;;;5017203;28;20475;-50
2021/12/04 17:22:56;;;;;;;26.90;11.68;;;;;;;;;;5016713;28;20379;-51
2021/12/04 17:25:23;;;;;;;26.23;10.98;;;;;;;;;;5016333;28;20378;-53
2021/12/04 17:27:49;;;;;;;28.02;13.88;;;;;;;;;;5021571;28;20040;-47
2021/12/04 17:30:17;;;;;;;30.92;14.77;;;;;;;;;;5036213;28;20596;-53
2021/12/04 17:32:44;;;;;;;40.00;16.38;;;;;;;;;;5036090;28;20049;-52
2021/12/04 17:35:22;;;;;;;37.58;16.10;;;;;;;;;;5036319;28;20401;-54
2021/12/04 17:37:50;;;;;;;29.48;14.23;;;;;;;;;;5036508;28;20651;-53
2021/12/04 17:40:18;;;;;;;28.10;12.77;;;;;;;;;;5035952;28;20061;-49
2021/12/04 17:42:44;;;;;;;33.63;13.50;;;;;;;;;;5036833;28;20025;-52
2021/12/04 17:45:12;;;;;;;30.88;14.07;;;;;;;;;;5036527;28;20040;-49
2021/12/04 17:47:42;;;;;;;32.17;16.02;;;;;;;;;;5036752;28;20033;-48
2021/12/04 17:50:11;;;;;;;34.38;14.90;;;;;;;;;;5036868;28;20053;-50
2021/12/04 17:52:37;;;;;;;50.17;24.13;;;;;;;;;;5034742;28;20029;-53
2021/12/04 17:55:04;;;;;;;66.50;29.45;;;;;;;;;;5036266;28;20025;-51
2021/12/04 17:57:32;;;;;;;70.28;30.17;;;;;;;;;;5035940;28;20043;-51
2021/12/04 17:59:58;;;;;;;77.22;30.77;;;;;;;;;;5036194;28;20371;-49
2021/12/04 18:02:25;;;;;;;50.47;21.70;;;;;;;;;;5035388;28;20029;-48
2021/12/04 18:04:55;;;;;;;51.90;22.90;;;;;;;;;;5035728;28;20113;-51
2021/12/04 18:07:25;;;;;;;36.33;17.00;;;;;;;;;;5036436;28;20534;-54
2021/12/04 18:09:52;;;;;;;36.08;15.43;;;;;;;;;;5035959;28;20036;-52
2021/12/04 18:12:22;;;;;;;40.08;16.75;;;;;;;;;;5036142;28;20028;-49
2021/12/04 18:14:50;;;;;;;37.58;16.02;;;;;;;;;;5035651;28;20395;-52
2021/12/04 18:17:16;;;;;;;35.15;13.68;;;;;;;;;;5036223;28;20033;-50
2021/12/04 18:19:43;;;;;;;34.90;15.05;;;;;;;;;;5036022;28;20556;-50
2021/12/04 18:22:09;;;;;;;39.83;17.35;;;;;;;;;;5036235;28;20493;-51